TVS4428 SAEZ-SBFZ
Flight info
| Callsign | TVS4428 |
|---|---|
| Flight time | N/A |
| Altitude | 35000 |
| Route | KUKEN1J KUKEN UM654 DOTKU |
| Aircraft | B38M/M-SDE3FGHIJ1RWXY/LB1 |
Departure
| Time | N/A |
|---|---|
| Airport | Ezeiza International Airport - Ministro Pistarini (SAEZ) |
Arrival
| Time | 2026-05-03 21:27 |
|---|---|
| Airport | Pinto Martins International Airport (SBFZ) |
| Time | Latitude | Longitude | Altitude | Speed | Heading |
|---|---|---|---|---|---|
| 2026-05-03 20:15 | -11.02564 | -42.12522 | 34944 ft | 471 kts | 22° |
| 2026-05-03 20:15 | -10.96653 | -42.09725 | 34941 ft | 471 kts | 22° |
| 2026-05-03 20:16 | -10.90714 | -42.06915 | 34939 ft | 471 kts | 22° |
| 2026-05-03 20:16 | -10.84762 | -42.04100 | 34940 ft | 471 kts | 22° |
| 2026-05-03 20:17 | -10.78815 | -42.01289 | 34938 ft | 471 kts | 22° |
| 2026-05-03 20:17 | -10.72861 | -41.98477 | 34940 ft | 472 kts | 22° |
| 2026-05-03 20:18 | -10.66907 | -41.95670 | 34940 ft | 472 kts | 22° |
| 2026-05-03 20:18 | -10.60942 | -41.92859 | 34942 ft | 472 kts | 22° |
| 2026-05-03 20:19 | -10.55022 | -41.90069 | 34941 ft | 472 kts | 22° |
| 2026-05-03 20:19 | -10.49060 | -41.87262 | 34946 ft | 472 kts | 22° |
| 2026-05-03 20:20 | -10.43097 | -41.84455 | 34942 ft | 472 kts | 21° |
| 2026-05-03 20:20 | -10.37129 | -41.81647 | 34948 ft | 472 kts | 21° |
| 2026-05-03 20:21 | -10.31159 | -41.78838 | 34951 ft | 472 kts | 21° |
| 2026-05-03 20:21 | -10.25226 | -41.76048 | 34952 ft | 472 kts | 21° |
| 2026-05-03 20:22 | -10.19256 | -41.73242 | 34952 ft | 472 kts | 21° |
| 2026-05-03 20:22 | -10.13288 | -41.70437 | 34951 ft | 472 kts | 21° |
| 2026-05-03 20:23 | -10.07352 | -41.67649 | 34950 ft | 472 kts | 21° |
| 2026-05-03 20:23 | -10.01389 | -41.64849 | 34947 ft | 472 kts | 21° |
| 2026-05-03 20:24 | -9.95416 | -41.62047 | 34949 ft | 472 kts | 21° |
| 2026-05-03 20:24 | -9.89453 | -41.59249 | 34948 ft | 472 kts | 21° |
| 2026-05-03 20:25 | -9.83488 | -41.56438 | 34946 ft | 472 kts | 21° |
| 2026-05-03 20:25 | -9.77517 | -41.53637 | 34944 ft | 473 kts | 21° |
| 2026-05-03 20:26 | -9.71569 | -41.50849 | 34943 ft | 472 kts | 21° |
| 2026-05-03 20:26 | -9.65594 | -41.48050 | 34944 ft | 472 kts | 21° |
| 2026-05-03 20:27 | -9.59621 | -41.45253 | 34942 ft | 472 kts | 21° |
| 2026-05-03 20:27 | -9.53691 | -41.42477 | 34944 ft | 472 kts | 21° |
| 2026-05-03 20:28 | -9.47724 | -41.39685 | 34945 ft | 472 kts | 21° |
| 2026-05-03 20:28 | -9.41761 | -41.36896 | 34943 ft | 472 kts | 21° |
| 2026-05-03 20:29 | -9.35801 | -41.34109 | 34946 ft | 472 kts | 21° |
| 2026-05-03 20:29 | -9.29839 | -41.31323 | 34949 ft | 472 kts | 21° |
| 2026-05-03 20:30 | -9.23864 | -41.28531 | 34949 ft | 472 kts | 21° |
| 2026-05-03 20:30 | -9.17897 | -41.25745 | 34951 ft | 472 kts | 22° |
| 2026-05-03 20:31 | -9.12943 | -41.23432 | 34953 ft | 472 kts | 22° |
| 2026-05-03 20:31 | -9.06980 | -41.20649 | 34956 ft | 471 kts | 22° |
| 2026-05-03 20:32 | -9.01029 | -41.17872 | 34957 ft | 471 kts | 22° |
| 2026-05-03 20:32 | -8.95089 | -41.15103 | 34957 ft | 470 kts | 22° |
| 2026-05-03 20:33 | -8.89146 | -41.12332 | 34962 ft | 469 kts | 22° |
| 2026-05-03 20:33 | -8.83261 | -41.09589 | 34956 ft | 468 kts | 22° |
| 2026-05-03 20:34 | -8.77343 | -41.06832 | 34957 ft | 467 kts | 22° |
| 2026-05-03 20:34 | -8.71446 | -41.04086 | 34959 ft | 466 kts | 22° |
| 2026-05-03 20:35 | -8.65592 | -41.01361 | 34958 ft | 465 kts | 22° |
| 2026-05-03 20:35 | -8.59706 | -40.98621 | 34956 ft | 465 kts | 22° |
| 2026-05-03 20:36 | -8.53836 | -40.95890 | 34958 ft | 464 kts | 22° |
| 2026-05-03 20:36 | -8.47967 | -40.93161 | 34958 ft | 465 kts | 22° |
| 2026-05-03 20:37 | -8.42090 | -40.90428 | 34955 ft | 464 kts | 22° |
| 2026-05-03 20:37 | -8.36214 | -40.87698 | 34954 ft | 465 kts | 22° |
| 2026-05-03 20:38 | -8.30343 | -40.84970 | 34957 ft | 465 kts | 22° |
| 2026-05-03 20:38 | -8.24464 | -40.82240 | 34954 ft | 465 kts | 22° |
| 2026-05-03 20:39 | -8.18592 | -40.79513 | 34957 ft | 465 kts | 22° |
| 2026-05-03 20:39 | -8.12747 | -40.76800 | 34954 ft | 464 kts | 22° |
| 2026-05-03 20:40 | -8.06882 | -40.74079 | 34953 ft | 463 kts | 22° |
| 2026-05-03 20:40 | -8.01024 | -40.71362 | 34958 ft | 463 kts | 22° |
| 2026-05-03 20:41 | -7.95175 | -40.68650 | 34955 ft | 462 kts | 22° |
| 2026-05-03 20:41 | -7.89324 | -40.65938 | 34956 ft | 462 kts | 22° |
| 2026-05-03 20:42 | -7.83485 | -40.63232 | 34959 ft | 462 kts | 22° |
| 2026-05-03 20:42 | -7.77641 | -40.60525 | 34954 ft | 462 kts | 22° |
| 2026-05-03 20:43 | -7.71798 | -40.57819 | 34964 ft | 462 kts | 22° |
| 2026-05-03 20:43 | -7.65962 | -40.55117 | 34965 ft | 461 kts | 22° |
| 2026-05-03 20:44 | -7.60124 | -40.52415 | 34969 ft | 462 kts | 22° |
| 2026-05-03 20:44 | -7.54319 | -40.49729 | 34968 ft | 462 kts | 22° |
| 2026-05-03 20:45 | -7.48460 | -40.47018 | 34971 ft | 463 kts | 22° |
| 2026-05-03 20:45 | -7.42603 | -40.44310 | 34975 ft | 463 kts | 23° |
| 2026-05-03 20:46 | -7.36742 | -40.41601 | 34969 ft | 463 kts | 23° |
| 2026-05-03 20:46 | -7.30876 | -40.38890 | 34971 ft | 464 kts | 23° |
| 2026-05-03 20:47 | -7.25005 | -40.36177 | 34974 ft | 465 kts | 22° |
| 2026-05-03 20:47 | -7.19203 | -40.33498 | 34968 ft | 465 kts | 22° |
| 2026-05-03 20:48 | -7.13318 | -40.30780 | 34968 ft | 466 kts | 22° |
| 2026-05-03 20:48 | -7.07417 | -40.28057 | 34966 ft | 466 kts | 22° |
| 2026-05-03 20:49 | -7.01513 | -40.25332 | 34965 ft | 467 kts | 22° |
| 2026-05-03 20:49 | -6.95599 | -40.22603 | 34960 ft | 467 kts | 22° |
| 2026-05-03 20:50 | -6.89724 | -40.19893 | 34965 ft | 467 kts | 22° |
| 2026-05-03 20:50 | -6.83802 | -40.17162 | 34958 ft | 468 kts | 22° |
| 2026-05-03 20:51 | -6.77882 | -40.14433 | 34958 ft | 468 kts | 22° |
| 2026-05-03 20:51 | -6.71956 | -40.11700 | 34957 ft | 468 kts | 22° |
| 2026-05-03 20:52 | -6.66026 | -40.08967 | 34958 ft | 468 kts | 22° |
| 2026-05-03 20:52 | -6.60098 | -40.06235 | 34955 ft | 468 kts | 22° |
| 2026-05-03 20:53 | -6.54216 | -40.03525 | 34956 ft | 468 kts | 22° |
| 2026-05-03 20:53 | -6.48290 | -40.00796 | 34953 ft | 468 kts | 22° |
| 2026-05-03 20:54 | -6.42366 | -39.98067 | 34951 ft | 468 kts | 22° |
| 2026-05-03 20:54 | -6.33478 | -39.93976 | 34956 ft | 468 kts | 22° |
| 2026-05-03 20:55 | -6.27551 | -39.91249 | 34955 ft | 468 kts | 22° |
| 2026-05-03 20:55 | -6.21629 | -39.88524 | 34957 ft | 468 kts | 22° |
| 2026-05-03 20:56 | -6.15732 | -39.85812 | 34959 ft | 468 kts | 22° |
| 2026-05-03 20:56 | -6.09797 | -39.83079 | 34960 ft | 468 kts | 23° |
| 2026-05-03 20:57 | -6.03871 | -39.80343 | 34962 ft | 468 kts | 23° |
| 2026-05-03 20:57 | -5.97935 | -39.77602 | 34966 ft | 469 kts | 23° |
| 2026-05-03 20:58 | -5.92009 | -39.74867 | 34963 ft | 469 kts | 23° |
| 2026-05-03 20:58 | -5.86084 | -39.72134 | 34964 ft | 468 kts | 23° |
| 2026-05-03 20:59 | -5.80197 | -39.69418 | 34961 ft | 469 kts | 23° |
| 2026-05-03 20:59 | -5.74268 | -39.66684 | 34960 ft | 468 kts | 23° |
| 2026-05-03 21:00 | -5.70304 | -39.64856 | 34959 ft | 468 kts | 23° |
| 2026-05-03 21:00 | -5.62418 | -39.61221 | 34957 ft | 468 kts | 23° |
| 2026-05-03 21:01 | -5.56773 | -39.58619 | 34954 ft | 468 kts | 23° |
| 2026-05-03 21:01 | -5.53821 | -39.57259 | 34815 ft | 464 kts | 23° |
| 2026-05-03 21:01 | -5.50886 | -39.55905 | 34003 ft | 468 kts | 24° |
| 2026-05-03 21:02 | -5.47936 | -39.54547 | 32969 ft | 475 kts | 24° |
| 2026-05-03 21:02 | -5.44933 | -39.53164 | 32289 ft | 474 kts | 24° |
| 2026-05-03 21:02 | -5.41952 | -39.51791 | 31868 ft | 467 kts | 24° |
| 2026-05-03 21:02 | -5.39015 | -39.50439 | 31380 ft | 462 kts | 24° |
| 2026-05-03 21:03 | -5.36096 | -39.49095 | 30809 ft | 460 kts | 24° |
| 2026-05-03 21:03 | -5.33187 | -39.47755 | 30226 ft | 459 kts | 24° |
| 2026-05-03 21:03 | -5.30291 | -39.46421 | 29596 ft | 458 kts | 25° |
| 2026-05-03 21:03 | -5.27405 | -39.45093 | 28994 ft | 455 kts | 25° |
| 2026-05-03 21:04 | -5.24525 | -39.43767 | 28452 ft | 451 kts | 25° |
| 2026-05-03 21:04 | -5.21686 | -39.42461 | 27919 ft | 448 kts | 25° |
| 2026-05-03 21:04 | -5.18868 | -39.41164 | 27384 ft | 444 kts | 25° |
| 2026-05-03 21:04 | -5.16057 | -39.39871 | 26839 ft | 442 kts | 25° |
| 2026-05-03 21:05 | -5.13278 | -39.38592 | 26317 ft | 439 kts | 25° |
| 2026-05-03 21:05 | -5.10511 | -39.37319 | 25791 ft | 436 kts | 26° |
| 2026-05-03 21:05 | -5.07788 | -39.36067 | 25273 ft | 434 kts | 26° |
| 2026-05-03 21:05 | -5.05051 | -39.34807 | 24751 ft | 432 kts | 26° |
| 2026-05-03 21:06 | -5.02322 | -39.33553 | 24239 ft | 430 kts | 26° |
| 2026-05-03 21:06 | -4.99599 | -39.32300 | 23729 ft | 429 kts | 26° |
| 2026-05-03 21:06 | -4.96891 | -39.31055 | 23167 ft | 427 kts | 26° |
| 2026-05-03 21:06 | -4.94199 | -39.29818 | 22621 ft | 424 kts | 26° |
| 2026-05-03 21:07 | -4.91521 | -39.28586 | 22118 ft | 420 kts | 26° |
| 2026-05-03 21:07 | -4.88886 | -39.27375 | 21650 ft | 412 kts | 26° |
| 2026-05-03 21:07 | -4.86309 | -39.26191 | 21200 ft | 401 kts | 26° |
| 2026-05-03 21:07 | -4.83806 | -39.25040 | 20750 ft | 391 kts | 26° |
| 2026-05-03 21:08 | -4.81351 | -39.23912 | 20302 ft | 383 kts | 26° |
| 2026-05-03 21:08 | -4.78975 | -39.22819 | 19905 ft | 380 kts | 26° |
| 2026-05-03 21:08 | -4.76575 | -39.21717 | 19488 ft | 379 kts | 26° |
| 2026-05-03 21:08 | -4.74152 | -39.20603 | 19061 ft | 378 kts | 26° |
| 2026-05-03 21:09 | -4.71763 | -39.19505 | 18639 ft | 377 kts | 26° |
| 2026-05-03 21:09 | -4.69415 | -39.18427 | 18228 ft | 376 kts | 26° |
| 2026-05-03 21:09 | -4.67039 | -39.17335 | 17760 ft | 375 kts | 26° |
| 2026-05-03 21:09 | -4.64676 | -39.16250 | 17328 ft | 373 kts | 26° |
| 2026-05-03 21:10 | -4.62322 | -39.15169 | 16923 ft | 370 kts | 26° |
| 2026-05-03 21:10 | -4.59988 | -39.14097 | 16518 ft | 367 kts | 26° |
| 2026-05-03 21:10 | -4.57659 | -39.13058 | 16061 ft | 367 kts | 25° |
| 2026-05-03 21:10 | -4.55322 | -39.12041 | 15662 ft | 364 kts | 25° |
| 2026-05-03 21:11 | -4.53008 | -39.11029 | 15273 ft | 362 kts | 25° |
| 2026-05-03 21:11 | -4.50705 | -39.10021 | 14888 ft | 360 kts | 25° |
| 2026-05-03 21:11 | -4.48416 | -39.09018 | 14517 ft | 358 kts | 25° |
| 2026-05-03 21:11 | -4.46149 | -39.08026 | 14240 ft | 352 kts | 25° |
| 2026-05-03 21:12 | -4.43915 | -39.07047 | 13906 ft | 349 kts | 25° |
| 2026-05-03 21:12 | -4.41687 | -39.06072 | 13508 ft | 347 kts | 25° |
| 2026-05-03 21:12 | -4.39512 | -39.05060 | 13114 ft | 344 kts | 31° |
| 2026-05-03 21:12 | -4.37434 | -39.03876 | 12694 ft | 343 kts | 31° |
| 2026-05-03 21:13 | -4.35361 | -39.02709 | 12343 ft | 340 kts | 31° |
| 2026-05-03 21:13 | -4.33305 | -39.01562 | 12020 ft | 337 kts | 31° |
| 2026-05-03 21:13 | -4.31257 | -39.00426 | 11660 ft | 335 kts | 31° |
| 2026-05-03 21:13 | -4.29221 | -38.99300 | 11283 ft | 334 kts | 31° |
| 2026-05-03 21:14 | -4.27228 | -38.98196 | 10942 ft | 327 kts | 31° |
| 2026-05-03 21:14 | -4.25284 | -38.97118 | 10752 ft | 312 kts | 31° |
| 2026-05-03 21:14 | -4.23434 | -38.96091 | 10608 ft | 298 kts | 31° |
| 2026-05-03 21:14 | -4.21628 | -38.95088 | 10478 ft | 296 kts | 31° |
| 2026-05-03 21:15 | -4.19833 | -38.94092 | 10320 ft | 294 kts | 31° |
| 2026-05-03 21:15 | -4.18048 | -38.93102 | 10176 ft | 293 kts | 31° |
| 2026-05-03 21:15 | -4.16263 | -38.92112 | 10012 ft | 294 kts | 31° |
| 2026-05-03 21:15 | -4.14468 | -38.91116 | 9682 ft | 294 kts | 31° |
| 2026-05-03 21:16 | -4.12681 | -38.90125 | 9332 ft | 293 kts | 31° |
| 2026-05-03 21:16 | -4.10902 | -38.89149 | 9013 ft | 290 kts | 28° |
| 2026-05-03 21:16 | -4.09656 | -38.88657 | 8765 ft | 291 kts | 20° |
| 2026-05-03 21:16 | -4.07110 | -38.87820 | 8309 ft | 289 kts | 21° |
| 2026-05-03 21:17 | -4.05827 | -38.87395 | 8086 ft | 288 kts | 21° |
| 2026-05-03 21:17 | -4.03931 | -38.86758 | 7748 ft | 287 kts | 21° |
| 2026-05-03 21:17 | -4.02036 | -38.86118 | 7403 ft | 287 kts | 21° |
| 2026-05-03 21:17 | -4.00415 | -38.85569 | 7113 ft | 286 kts | 22° |
| 2026-05-03 21:18 | -3.98687 | -38.84649 | 6811 ft | 279 kts | 38° |
| 2026-05-03 21:18 | -3.97123 | -38.83519 | 6565 ft | 275 kts | 38° |
| 2026-05-03 21:18 | -3.95572 | -38.82413 | 6324 ft | 271 kts | 38° |
| 2026-05-03 21:18 | -3.94039 | -38.81322 | 6067 ft | 270 kts | 38° |
| 2026-05-03 21:19 | -3.92517 | -38.80240 | 5810 ft | 266 kts | 38° |
| 2026-05-03 21:19 | -3.91024 | -38.79180 | 5558 ft | 259 kts | 38° |
| 2026-05-03 21:19 | -3.89574 | -38.78150 | 5328 ft | 250 kts | 38° |
| 2026-05-03 21:19 | -3.88197 | -38.77173 | 5156 ft | 235 kts | 38° |
| 2026-05-03 21:20 | -3.86898 | -38.76250 | 4923 ft | 223 kts | 39° |
| 2026-05-03 21:20 | -3.85658 | -38.75371 | 4706 ft | 214 kts | 38° |
| 2026-05-03 21:20 | -3.84459 | -38.74518 | 4479 ft | 211 kts | 39° |
| 2026-05-03 21:20 | -3.83259 | -38.73666 | 4309 ft | 211 kts | 38° |
| 2026-05-03 21:21 | -3.81982 | -38.72973 | 4105 ft | 214 kts | 21° |
| 2026-05-03 21:21 | -3.80551 | -38.72558 | 3882 ft | 214 kts | 18° |
| 2026-05-03 21:21 | -3.79134 | -38.72162 | 3641 ft | 209 kts | 18° |
| 2026-05-03 21:21 | -3.77736 | -38.71775 | 3425 ft | 207 kts | 18° |
| 2026-05-03 21:22 | -3.76365 | -38.71397 | 3227 ft | 202 kts | 18° |
| 2026-05-03 21:22 | -3.75044 | -38.70993 | 3009 ft | 195 kts | 30° |
| 2026-05-03 21:22 | -3.74090 | -38.70106 | 2819 ft | 186 kts | 65° |
| 2026-05-03 21:22 | -3.73777 | -38.68879 | 2686 ft | 183 kts | 89° |
| 2026-05-03 21:23 | -3.73833 | -38.67614 | 2527 ft | 182 kts | 101° |
| 2026-05-03 21:23 | -3.74117 | -38.66382 | 2324 ft | 181 kts | 107° |
| 2026-05-03 21:23 | -3.74447 | -38.65180 | 2124 ft | 175 kts | 107° |
| 2026-05-03 21:23 | -3.74746 | -38.64067 | 1909 ft | 159 kts | 107° |
| 2026-05-03 21:24 | -3.75020 | -38.63042 | 1748 ft | 149 kts | 106° |
| 2026-05-03 21:24 | -3.75288 | -38.62042 | 1595 ft | 145 kts | 105° |
| 2026-05-03 21:24 | -3.75531 | -38.61096 | 1377 ft | 139 kts | 105° |
| 2026-05-03 21:24 | -3.75783 | -38.60156 | 1203 ft | 140 kts | 107° |
| 2026-05-03 21:25 | -3.76044 | -38.59216 | 1045 ft | 144 kts | 106° |
| 2026-05-03 21:25 | -3.76290 | -38.58230 | 892 ft | 144 kts | 104° |
| 2026-05-03 21:25 | -3.76558 | -38.57290 | 696 ft | 139 kts | 106° |
| 2026-05-03 21:25 | -3.76806 | -38.56350 | 530 ft | 139 kts | 104° |
| 2026-05-03 21:26 | -3.77054 | -38.55408 | 353 ft | 140 kts | 104° |
| 2026-05-03 21:26 | -3.77300 | -38.54479 | 155 ft | 135 kts | 105° |
| 2026-05-03 21:26 | -3.77533 | -38.53632 | 88 ft | 113 kts | 104° |
| 2026-05-03 21:26 | -3.77697 | -38.53015 | 86 ft | 69 kts | 105° |
| 2026-05-03 21:27 | -3.77782 | -38.52699 | 81 ft | 29 kts | 105° |
| 2026-05-03 21:27 | -3.77844 | -38.52622 | 78 ft | 10 kts | 204° |
| 2026-05-03 21:27 | -3.77875 | -38.52665 | 76 ft | 8 kts | 243° |
| 2026-05-03 21:27 | -3.77899 | -38.52716 | 83 ft | 9 kts | 245° |
| 2026-05-03 21:28 | -3.77913 | -38.52779 | 84 ft | 10 kts | 281° |
| 2026-05-03 21:28 | -3.77892 | -38.52850 | 82 ft | 11 kts | 287° |
| 2026-05-03 21:28 | -3.77871 | -38.52929 | 82 ft | 12 kts | 284° |
| 2026-05-03 21:28 | -3.77848 | -38.53016 | 84 ft | 14 kts | 285° |
| 2026-05-03 21:29 | -3.77823 | -38.53110 | 85 ft | 14 kts | 285° |
| 2026-05-03 21:29 | -3.77797 | -38.53207 | 87 ft | 15 kts | 285° |
| 2026-05-03 21:29 | -3.77769 | -38.53311 | 87 ft | 16 kts | 285° |
| 2026-05-03 21:29 | -3.77746 | -38.53398 | 88 ft | 10 kts | 285° |
| 2026-05-03 21:30 | -3.77747 | -38.53459 | 89 ft | 8 kts | 231° |
| 2026-05-03 21:30 | -3.77784 | -38.53479 | 88 ft | 4 kts | 197° |
| 2026-05-03 21:30 | -3.77807 | -38.53485 | 88 ft | 1 kts | 195° |
| 2026-05-03 21:30 | -3.77810 | -38.53486 | 88 ft | 0 kts | 195° |